IBM weather

Kimball Municipal Robert E Arraj Field
Kimball, Nebraska, United States

Public forecast

Using degrees Fahrenheit for public forecast. Weather courtesy of forecast.io.

METAR (pilot weather report)

Retrieved 2019/07/22 11:35 UTC (0 seconds ago):

KIBM 221135Z AUTO 12008KT 1 1/4SM BR OVC003 16/15 A3038 RMK AO2 T01560153

TAF (pilot weather forecast)

Closest forecast is Sidney Municipal-Lloyd W Carr Field, 31.7 nm (58.7 km) E. Retrieved 2019/07/22 06:42 UTC (5 hours ago):

TAF KSNY 220536Z 2206/2306 07011KT 6SM BR OVC008 FM221500 14010KT P6SM SCT005 BKN020 FM221900 16010KT P6SM SCT020 BKN050 FM230200 13010KT P6SM BKN050